Time;durP1;ratioP1;P1;durP2;ratioP2;P2;SDS_P1;SDS_P2;PMS_P1;PMS_P2;Temp;Humidity;BMP_temperature;BMP_pressure;BME280_temperature;BME280_humidity;BME280_pressure;Samples;Min_cycle;Max_cycle;Signal;HPM_P1;HPM_P2
2021/12/18 12:32:20;;;;;;;0.60;0.60;;;;;;;3.16;62.57;94802.28;2616831;54;20194;-71
2021/12/18 12:35:07;;;;;;;0.80;0.80;;;;;;;5.15;65.92;95044.13;2617731;54;20286;-71
2021/12/18 12:37:50;;;;;;;1.37;1.37;;;;;;;5.04;62.25;95014.75;2617818;54;20159;-71
2021/12/18 12:44:15;;;;;;;0.73;0.73;;;;;;;3.42;62.17;94882.31;2617719;46;20168;-70
2021/12/18 12:50:37;;;;;;;0.50;0.50;;;;;;;4.04;62.25;95027.63;2617256;54;20175;-70
2021/12/18 12:53:27;;;;;;;0.40;0.40;;;;;;;2.90;63.00;94909.75;2617512;54;20182;-70
2021/12/18 12:59:25;;;;;;;0.50;0.50;;;;;;;3.58;60.91;95059.03;2617093;46;20159;-70
2021/12/18 13:02:16;;;;;;;0.30;0.30;;;;;;;2.20;64.36;94789.91;2617830;54;20164;-72
2021/12/18 17:17:58;;;;;;;1.93;1.83;;;;;;;7.99;55.77;95139.03;2609121;54;20319;-71
2021/12/18 17:20:27;;;;;;;0.87;0.83;;;;;;;8.26;55.23;95219.34;2614313;54;20164;-70
2021/12/18 17:22:56;;;;;;;1.63;1.53;;;;;;;7.49;53.25;95228.13;2614414;54;20160;-70
2021/12/18 17:25:26;;;;;;;1.30;1.30;;;;;;;7.76;57.17;95224.59;2613953;54;20145;-72
2021/12/18 17:27:56;;;;;;;1.67;1.60;;;;;;;6.75;54.38;95217.09;2615198;47;20156;-70
2021/12/18 17:30:28;;;;;;;1.87;1.87;;;;;;;6.36;57.43;95168.44;2615505;54;20273;-72
2021/12/18 17:33:03;;;;;;;1.60;1.03;;;;;;;5.92;56.41;95217.25;2615088;46;20435;-72
2021/12/18 17:35:32;;;;;;;2.03;1.93;;;;;;;6.75;62.05;95219.91;2615899;31;20618;-72
2021/12/18 17:38:01;;;;;;;4.00;1.87;;;;;;;6.79;59.11;95191.25;2615498;47;20172;-72
2021/12/18 17:40:30;;;;;;;0.87;0.87;;;;;;;6.99;58.36;95214.13;2614950;47;20252;-70
2021/12/18 17:42:59;;;;;;;1.07;1.07;;;;;;;6.91;59.61;95169.38;2615520;47;20160;-72
2021/12/18 17:45:28;;;;;;;1.03;1.03;;;;;;;7.23;57.12;95178.84;2615443;54;20219;-72
2021/12/18 17:47:57;;;;;;;1.77;1.63;;;;;;;7.75;57.09;95219.59;2615263;54;20153;-71
2021/12/18 17:50:28;;;;;;;2.00;1.83;;;;;;;6.72;53.38;95170.47;2613438;54;20172;-72
2021/12/18 17:53:07;;;;;;;0.70;0.70;;;;;;;5.98;56.35;95200.75;2613224;54;20157;-72
2021/12/18 17:55:38;;;;;;;1.43;1.37;;;;;;;6.53;60.98;95179.25;2613597;54;20165;-72
2021/12/18 17:58:07;;;;;;;0.80;0.80;;;;;;;6.38;61.11;95205.88;2614543;47;20165;-72
2021/12/18 18:00:36;;;;;;;0.43;0.43;;;;;;;6.46;59.91;95177.44;2614875;54;20204;-71
2021/12/18 18:03:05;;;;;;;1.27;1.10;;;;;;;6.50;59.51;95222.72;2615245;39;20542;-70
2021/12/18 18:05:43;;;;;;;0.57;0.57;;;;;;;6.46;58.85;95197.13;2615430;54;20160;-72
2021/12/18 18:08:19;;;;;;;0.77;0.77;;;;;;;6.16;57.02;95207.41;2614868;39;20542;-71
2021/12/18 18:10:49;;;;;;;1.30;1.30;;;;;;;5.68;57.42;95220.06;2615106;47;20168;-74
2021/12/18 18:13:21;;;;;;;1.00;1.00;;;;;;;5.34;58.04;95196.25;2614983;47;20160;-72
2021/12/18 18:15:50;;;;;;;1.03;1.03;;;;;;;6.10;62.32;95221.13;2614740;54;20180;-72
2021/12/18 18:18:19;;;;;;;11.47;1.97;;;;;;;6.49;61.69;95240.19;2615213;54;20200;-72
2021/12/18 18:20:52;;;;;;;2.40;2.27;;;;;;;6.04;57.56;95240.44;2615133;46;20169;-72
2021/12/18 18:23:20;;;;;;;1.90;1.37;;;;;;;5.53;58.82;95181.22;2615311;47;20164;-73
2021/12/18 18:25:50;;;;;;;1.30;0.93;;;;;;;6.15;58.79;95234.06;2615318;31;20589;-73
2021/12/18 18:28:21;;;;;;;1.20;1.20;;;;;;;4.71;60.43;95176.91;2614767;47;20759;-72
2021/12/18 18:31:01;;;;;;;2.63;2.00;;;;;;;4.82;59.21;95237.91;2614018;47;20168;-71
2021/12/18 18:33:31;;;;;;;0.60;0.60;;;;;;;5.23;61.66;95218.72;2613853;54;20199;-71
2021/12/18 18:36:02;;;;;;;1.70;1.60;;;;;;;5.49;62.64;95239.22;2614418;54;20220;-73
2021/12/18 18:38:31;;;;;;;1.33;1.33;;;;;;;5.52;62.27;95240.84;2614494;54;20714;-72
2021/12/18 18:41:05;;;;;;;1.37;1.27;;;;;;;5.06;61.37;95213.47;2614248;47;20157;-72
2021/12/18 18:43:33;;;;;;;2.30;2.07;;;;;;;4.93;61.81;95181.81;2614159;54;20156;-71
2021/12/18 18:46:24;;;;;;;1.27;1.00;;;;;;;5.98;65.44;95228.84;2613722;47;20299;-71
2021/12/18 18:48:57;;;;;;;5.00;1.53;;;;;;;5.61;64.37;95167.63;2614571;47;20237;-72
2021/12/18 18:51:31;;;;;;;1.17;1.17;;;;;;;5.70;62.86;95208.94;2613968;39;20550;-72
2021/12/18 18:54:00;;;;;;;1.60;1.03;;;;;;;5.56;56.53;95222.16;2614507;54;20196;-71
2021/12/18 18:56:37;;;;;;;0.87;0.87;;;;;;;5.44;57.31;95232.66;2614617;54;20660;-73
2021/12/18 18:59:07;;;;;;;3.23;1.97;;;;;;;5.77;60.28;95237.41;2612655;47;20179;-72
2021/12/18 19:01:40;;;;;;;2.75;2.60;;;;;;;5.70;59.24;95186.47;2613215;31;21070;-72
2021/12/18 19:04:09;;;;;;;0.90;0.87;;;;;;;6.51;60.11;95217.81;2614651;54;20196;-71
2021/12/18 19:06:48;;;;;;;1.90;1.87;;;;;;;6.47;63.42;95166.94;2614585;54;20171;-71
2021/12/18 19:09:19;;;;;;;0.40;0.40;;;;;;;6.24;58.18;95219.13;2615420;39;20598;-71
2021/12/18 19:11:47;;;;;;;2.13;1.93;;;;;;;6.88;64.91;95204.41;2615042;47;20787;-72
2021/12/18 19:14:16;;;;;;;2.60;1.90;;;;;;;6.45;58.22;95223.81;2613830;47;20171;-72
2021/12/18 19:16:46;;;;;;;2.90;1.57;;;;;;;5.93;60.71;95166.03;2613740;54;20168;-72
2021/12/18 19:22:01;;;;;;;2.10;2.00;;;;;;;5.92;63.01;95096.34;2614422;47;20412;-72
2021/12/18 19:24:30;;;;;;;1.40;1.37;;;;;;;6.89;61.65;95231.22;2614985;47;20171;-71
2021/12/18 19:26:59;;;;;;;1.20;1.20;;;;;;;6.67;58.13;95227.91;2614917;54;20169;-71
2021/12/18 19:29:28;;;;;;;1.33;1.33;;;;;;;6.19;58.29;95194.19;2615132;54;20647;-71
2021/12/18 19:31:57;;;;;;;1.20;1.20;;;;;;;5.38;57.05;95162.06;2615051;47;20165;-71
2021/12/18 19:34:26;;;;;;;0.80;0.77;;;;;;;5.30;57.85;95179.16;2614778;54;20180;-73
2021/12/18 19:36:55;;;;;;;1.03;1.03;;;;;;;5.39;59.74;95191.59;2614126;47;20648;-71
2021/12/18 19:39:30;;;;;;;0.50;0.50;;;;;;;4.98;57.94;95238.94;2614977;39;20612;-71
2021/12/18 19:42:00;;;;;;;0.80;0.80;;;;;;;4.25;60.51;95232.22;2615311;54;20164;-71
2021/12/18 19:44:29;;;;;;;3.20;1.17;;;;;;;4.22;64.96;95227.84;2614839;54;20187;-72
2021/12/18 19:46:58;;;;;;;1.20;1.20;;;;;;;3.27;63.44;95220.75;2614269;47;20160;-72
2021/12/18 19:49:27;;;;;;;2.17;1.80;;;;;;;3.62;68.29;95240.63;2614327;47;20806;-72
2021/12/18 19:51:55;;;;;;;0.50;0.50;;;;;;;3.84;64.02;95237.22;2614719;54;20165;-72
2021/12/18 19:54:30;;;;;;;3.20;1.87;;;;;;;4.42;66.09;95219.97;2614616;54;20189;-72
2021/12/18 19:57:00;;;;;;;1.63;1.63;;;;;;;4.11;65.60;95150.00;2615012;39;20570;-72
2021/12/18 19:59:29;;;;;;;0.97;0.97;;;;;;;4.24;60.73;95225.16;2615011;54;20173;-72
2021/12/18 20:02:03;;;;;;;1.03;1.03;;;;;;;4.28;62.71;95196.63;2614794;39;20884;-72
2021/12/18 20:04:34;;;;;;;1.13;1.13;;;;;;;4.65;60.69;95233.34;2614609;54;20145;-71
2021/12/18 20:07:07;;;;;;;0.50;0.50;;;;;;;4.31;61.17;95225.56;2614627;47;20696;-71
2021/12/18 20:09:46;;;;;;;1.50;1.40;;;;;;;4.19;65.23;95209.41;2615400;47;20350;-71
2021/12/18 20:12:18;;;;;;;0.97;0.97;;;;;;;3.64;61.26;95193.13;2615454;54;20161;-72
2021/12/18 20:14:46;;;;;;;1.40;1.30;;;;;;;4.59;62.91;95228.09;2615280;54;20707;-72
2021/12/18 20:17:17;;;;;;;0.70;0.70;;;;;;;4.19;60.00;95226.22;2614265;47;20196;-72
2021/12/18 20:19:50;;;;;;;0.87;0.87;;;;;;;4.40;61.16;95227.53;2614366;54;20692;-71
2021/12/18 20:22:21;;;;;;;0.70;0.70;;;;;;;3.70;61.94;95204.75;2614584;54;20240;-72
2021/12/18 20:24:53;;;;;;;1.00;1.00;;;;;;;3.11;62.63;95176.34;2613469;54;20416;-71
2021/12/18 20:27:21;;;;;;;1.20;1.20;;;;;;;2.88;62.44;95155.78;2614061;54;20153;-72
2021/12/18 20:29:50;;;;;;;1.40;0.83;;;;;;;3.54;67.34;95187.59;2615458;54;20159;-72
2021/12/18 20:32:19;;;;;;;0.70;0.70;;;;;;;3.74;68.63;95163.72;2615842;54;20155;-73
2021/12/18 20:34:48;;;;;;;0.70;0.70;;;;;;;4.29;64.42;95184.81;2615901;47;20683;-72
2021/12/18 20:37:20;;;;;;;1.27;1.27;;;;;;;4.35;62.02;95223.75;2614960;54;20157;-72
2021/12/18 20:39:53;;;;;;;0.50;0.50;;;;;;;3.49;61.69;95225.06;2615617;47;20659;-72
2021/12/18 20:42:27;;;;;;;0.63;0.63;;;;;;;2.88;66.08;95197.75;2616007;46;20204;-71
2021/12/18 20:44:56;;;;;;;0.33;0.33;;;;;;;2.35;63.75;95163.31;2615442;54;20156;-72
2021/12/18 20:47:25;;;;;;;0.40;0.40;;;;;;;2.48;64.05;95171.22;2614800;54;20715;-72
2021/12/18 20:49:54;;;;;;;0.60;0.60;;;;;;;2.94;63.94;95234.56;2615551;39;20647;-71
2021/12/18 20:52:22;;;;;;;0.40;0.40;;;;;;;2.63;65.82;95207.25;2616107;54;20157;-70
2021/12/18 20:54:51;;;;;;;0.50;0.50;;;;;;;2.33;64.29;95230.97;2615238;54;20153;-71
2021/12/18 20:57:20;;;;;;;0.50;0.50;;;;;;;2.81;63.34;95227.38;2615367;54;20213;-71
2021/12/18 20:59:51;;;;;;;0.43;0.43;;;;;;;3.12;63.38;95227.44;2614489;54;20776;-71
2021/12/18 21:02:24;;;;;;;0.93;0.90;;;;;;;2.45;64.81;95164.78;2614297;54;20161;-71
2021/12/18 21:04:59;;;;;;;0.90;0.90;;;;;;;3.50;66.77;95227.28;2615144;54;20287;-71
2021/12/18 21:07:34;;;;;;;0.47;0.47;;;;;;;3.80;61.93;95222.97;2615413;54;20175;-73
2021/12/18 21:10:03;;;;;;;0.80;0.80;;;;;;;3.51;64.41;95195.13;2615596;47;20214;-71
2021/12/18 21:12:32;;;;;;;0.73;0.73;;;;;;;3.12;64.56;95161.00;2615519;47;20692;-71
2021/12/18 21:15:03;;;;;;;0.60;0.60;;;;;;;3.12;61.93;95188.25;2615483;54;20201;-72
2021/12/18 21:17:32;;;;;;;1.00;1.00;;;;;;;3.47;65.46;95219.31;2615392;54;20729;-72
2021/12/18 21:20:00;;;;;;;0.50;0.50;;;;;;;2.96;62.49;95182.28;2615480;47;20166;-72
2021/12/18 21:22:29;;;;;;;1.60;1.43;;;;;;;2.72;60.68;95149.84;2616182;31;20850;-72
2021/12/18 21:24:59;;;;;;;1.13;1.13;;;;;;;3.55;60.61;95205.88;2615380;54;20160;-71
2021/12/18 21:27:29;;;;;;;3.40;1.83;;;;;;;2.57;62.91;95142.53;2615546;54;20161;-71
2021/12/18 21:29:59;;;;;;;0.97;0.97;;;;;;;3.67;64.82;95191.94;2615017;53;20176;-72
2021/12/18 21:32:38;;;;;;;0.60;0.60;;;;;;;4.41;63.92;95178.53;2615157;47;20825;-72
2021/12/18 21:37:54;;;;;;;0.70;0.70;;;;;;;3.99;58.48;95168.09;2614900;47;20164;-73
2021/12/18 21:40:23;;;;;;;0.53;0.53;;;;;;;4.13;60.70;95203.41;2614987;47;20168;-72
2021/12/18 21:42:53;;;;;;;1.50;1.50;;;;;;;4.03;59.33;95197.13;2615213;46;20180;-72
2021/12/18 21:45:22;;;;;;;0.77;0.77;;;;;;;3.19;59.79;95182.47;2615242;47;20273;-72
2021/12/18 21:47:54;;;;;;;1.30;1.20;;;;;;;3.41;62.67;95168.53;2615283;54;20269;-72
2021/12/18 21:50:23;;;;;;;0.90;0.90;;;;;;;4.14;60.45;95196.47;2615311;54;20153;-71
2021/12/18 21:52:59;;;;;;;0.80;0.80;;;;;;;3.80;59.44;95157.81;2615179;47;20279;-71
2021/12/18 21:55:29;;;;;;;0.50;0.50;;;;;;;4.14;63.38;95174.03;2603883;54;20180;-72
2021/12/18 21:57:58;;;;;;;0.50;0.50;;;;;;;4.15;59.37;95186.72;2613426;54;20208;-72
2021/12/18 22:00:30;;;;;;;0.40;0.40;;;;;;;3.64;59.27;95143.47;2614850;54;20176;-71
2021/12/18 22:03:03;;;;;;;0.53;0.53;;;;;;;3.83;62.14;95159.38;2615094;54;20165;-72
2021/12/18 22:05:32;;;;;;;0.27;0.27;;;;;;;3.86;60.81;95144.91;2615081;47;20161;-73
2021/12/18 22:08:07;;;;;;;0.40;0.40;;;;;;;3.98;59.25;95158.97;2615273;54;20160;-72
2021/12/18 22:10:37;;;;;;;1.00;1.00;;;;;;;4.29;64.84;95168.00;2615134;54;20193;-72
2021/12/18 22:13:07;;;;;;;0.67;0.50;;;;;;;4.69;59.30;95173.97;2611684;54;20160;-73
2021/12/18 22:15:36;;;;;;;0.60;0.60;;;;;;;4.21;60.37;95169.56;2614799;47;20168;-73
2021/12/18 22:18:09;;;;;;;0.40;0.40;;;;;;;3.74;57.48;95144.13;2607904;54;20192;-72
2021/12/18 22:20:38;;;;;;;0.87;0.83;;;;;;;3.09;63.21;95164.25;2609825;47;20876;-73
2021/12/18 22:23:17;;;;;;;0.83;0.83;;;;;;;2.89;63.23;95118.84;2615614;54;20188;-72
2021/12/18 22:25:46;;;;;;;0.40;0.40;;;;;;;3.43;61.60;95163.78;2615437;47;20171;-72
2021/12/18 22:28:16;;;;;;;0.33;0.33;;;;;;;3.06;59.45;95155.00;2615332;54;20154;-72
2021/12/18 22:30:47;;;;;;;0.40;0.40;;;;;;;3.13;59.28;95151.28;2615124;54;20169;-73
2021/12/18 22:33:20;;;;;;;0.57;0.57;;;;;;;3.16;62.12;95152.13;2615391;47;20173;-72
2021/12/18 22:35:58;;;;;;;0.50;0.50;;;;;;;3.36;61.61;95122.72;2615087;54;20149;-72
2021/12/18 22:38:27;;;;;;;0.50;0.50;;;;;;;4.22;65.90;95152.13;2615810;54;20284;-73
2021/12/18 22:41:08;;;;;;;0.40;0.40;;;;;;;3.84;61.98;95152.44;2614110;54;20187;-72
2021/12/18 22:43:37;;;;;;;0.70;0.70;;;;;;;3.39;58.72;95113.13;2616272;39;20571;-73
2021/12/18 22:46:08;;;;;;;0.50;0.50;;;;;;;3.53;60.57;95144.88;2615550;47;20231;-71
2021/12/18 22:48:50;;;;;;;0.77;0.77;;;;;;;2.93;63.25;95133.09;2615585;54;20168;-71
2021/12/18 22:51:19;;;;;;;0.43;0.43;;;;;;;2.73;61.37;95110.06;2615869;39;20540;-72
2021/12/18 22:53:47;;;;;;;1.23;1.23;;;;;;;2.76;60.31;95131.25;2615564;54;20975;-72
2021/12/18 22:56:16;;;;;;;0.50;0.50;;;;;;;2.76;65.52;95097.69;2615527;47;20215;-72
2021/12/18 22:58:45;;;;;;;1.10;1.00;;;;;;;3.10;64.05;95135.69;2615347;54;20166;-72
2021/12/18 23:01:18;;;;;;;0.77;0.77;;;;;;;2.19;62.39;95031.56;2614953;47;20269;-72
2021/12/18 23:03:59;;;;;;;0.37;0.37;;;;;;;2.80;63.25;95128.75;2615301;54;20240;-72
2021/12/18 23:06:28;;;;;;;0.43;0.43;;;;;;;2.92;60.76;95119.72;2615565;54;20175;-72
2021/12/18 23:08:58;;;;;;;0.50;0.50;;;;;;;2.83;64.82;95074.41;2615443;47;20309;-72
2021/12/18 23:11:32;;;;;;;0.30;0.30;;;;;;;2.81;59.17;95110.63;2615612;54;20161;-72
2021/12/18 23:14:26;;;;;;;0.40;0.40;;;;;;;2.33;64.30;95059.75;2615362;47;20156;-71
2021/12/18 23:17:16;;;;;;;0.30;0.30;;;;;;;2.53;61.26;95102.34;2614625;54;20165;-72
2021/12/18 23:22:25;;;;;;;0.30;0.30;;;;;;;2.07;67.51;95106.88;2615578;46;20161;-72
2021/12/18 23:24:54;;;;;;;0.40;0.40;;;;;;;2.08;62.51;95104.81;2614361;54;20180;-72
2021/12/18 23:27:23;;;;;;;0.50;0.50;;;;;;;1.47;63.72;94996.47;2615484;54;20168;-71
2021/12/18 23:29:52;;;;;;;0.93;0.93;;;;;;;1.29;64.50;95018.19;2615764;47;20677;-71
2021/12/18 23:32:22;;;;;;;0.67;0.67;;;;;;;0.95;63.51;95010.84;2615295;47;20712;-72
2021/12/18 23:35:05;;;;;;;0.87;0.87;;;;;;;1.11;67.51;95090.13;2614802;54;20200;-72
2021/12/18 23:37:35;;;;;;;0.53;0.53;;;;;;;1.57;65.14;95086.50;2615140;54;20200;-71
2021/12/18 23:40:05;;;;;;;3.40;1.60;;;;;;;1.36;65.44;95071.09;2615493;39;20588;-71
2021/12/18 23:42:43;;;;;;;0.40;0.40;;;;;;;1.89;64.42;95086.03;2615162;47;20165;-71
2021/12/18 23:48:00;;;;;;;0.60;0.60;;;;;;;3.03;64.57;95051.91;2615114;47;20173;-71
2021/12/18 23:50:33;;;;;;;0.60;0.60;;;;;;;2.83;61.68;95045.72;2615147;54;20184;-72
2021/12/18 23:53:01;;;;;;;0.87;0.87;;;;;;;2.27;63.32;95042.56;2615629;39;20551;-71
2021/12/18 23:55:30;;;;;;;0.60;0.60;;;;;;;1.89;62.18;95049.00;2615149;54;20153;-71
2021/12/18 23:57:59;;;;;;;0.60;0.60;;;;;;;2.10;64.80;95066.59;2615086;47;21401;-71
